Cascade, Montana
Current Conditions -  °F | °C
As of 6:53 PM on Saturday 20 Dec 2014 (Local Time) from KGTF Reporting Station
Clear Clear  
Wind Chill: 25°   Ceiling: Unl
Heat Index: 34°   Visibility: 10mi
Dew Point: 25°   Wind: 12mph
Humidity: 70%   Direction: 200°SSW
Pressure: 29.66"   Gusts: NA
Location:  47.27°N, 111.7°W
Report Text: KGTF 210153Z 20010KT 10SM CLR 01/M04 A2966 RMK AO2 SLP078 T00111039
Loading
Personal Weather Stations






























Interactive Weather Map New forecast layout! Learn more

10-Day Weather Forecast

Advertisements
Track Severe Weather on mobile